»·PEaware :: ASA1013 KGEG-KPDX

ASA1013 :: KGEG-KPDX

FLIGHT INFORMATION

Flight Status: Arrived
Operator:
Alaska Airlines
More flights by this operator :: More flights under this callsign
Pilot: Joe C. (19058)
Aircraft: BOEING 737-900
(B739)
More flights by this aircraft type
Origin: KGEG Spokane Intl
United States
Destination: KPDX Portland Intl
United States
More flights between these airports :: More routes between these airports
Route: +GEG3 ZEGRO YENTL HHOOD4
File this flight plan on PilotEdge
Remarks: PBN / A1B1C1D1S1S2 DOF / 180609 REG / N922SB OPR / ASA PER / D RMK / TCAS SIMBRIEF
Altitude:
(Current/Filed)
38,000ft
Speed:
(Current/Filed)
456kts
Departed: 08-Jun-18 06:18 PM
Arrived: 08-Jun-18 07:09 PM
Distance/Time
Traveled:
241nm/0:51
Distance/Time
To Go:
Arrived

Flight Plot

Page will automatically refresh every two minutes.

Flight plan parsing failed; only flown route is shown


Map Options




Map Legend


Flown Route
Filed Route
Departure Airport
Arrival Airport
Navaid (VOR, NDB)
Fix

Horizontal Profiles

Position Reports

Time Latitude Longitude Heading Altitude Ground
Speed
08-Jun-18 18:04 47.623959 -117.535876 1 2362ft 0kts
08-Jun-18 18:05 47.623959 -117.535876 1 2362ft 0kts
08-Jun-18 18:06 47.623959 -117.535876 1 2362ft 0kts
08-Jun-18 18:07 47.623959 -117.535876 1 2362ft 0kts
08-Jun-18 18:08 47.623959 -117.535876 1 2362ft 0kts
08-Jun-18 18:09 47.623959 -117.535876 1 2362ft 0kts
08-Jun-18 18:10 47.623959 -117.535876 1 2362ft 0kts
08-Jun-18 18:11 47.623959 -117.535876 1 2362ft 0kts
08-Jun-18 18:12 47.623660 -117.536102 73 2362ft 2kts
08-Jun-18 18:13 47.623744 -117.536494 128 2363ft 0kts
08-Jun-18 18:14 47.623161 -117.535434 127 2361ft 12kts
08-Jun-18 18:15 47.625915 -117.530330 45 2354ft 24kts
08-Jun-18 18:16 47.631753 -117.521529 44 2333ft 25kts
08-Jun-18 18:17 47.632293 -117.520096 107 2329ft 7kts
08-Jun-18 18:18 47.624912 -117.527753 225 2354ft 131kts
08-Jun-18 18:19 47.591054 -117.577716 226 5049ft 181kts
08-Jun-18 18:20 47.548235 -117.650361 231 7362ft 272kts
08-Jun-18 18:21 47.499506 -117.735582 228 11132ft 297kts
08-Jun-18 18:22 47.446059 -117.830082 231 15042ft 310kts
08-Jun-18 18:23 47.395617 -117.935343 231 18635ft 322kts
08-Jun-18 18:24 47.343173 -118.044479 231 21889ft 334kts
08-Jun-18 18:25 47.289454 -118.155767 231 24778ft 344kts
08-Jun-18 18:26 47.233253 -118.271744 231 27388ft 355kts
08-Jun-18 18:27 47.175223 -118.391084 231 29892ft 360kts
08-Jun-18 18:28 47.118293 -118.507793 230 32552ft 349kts
08-Jun-18 18:29 47.062532 -118.621613 230 34708ft 341kts
08-Jun-18 18:30 47.008883 -118.730242 230 36355ft 338kts
08-Jun-18 18:31 46.954422 -118.839960 230 37659ft 337kts
08-Jun-18 18:32 46.900160 -118.948799 229 37888ft 361kts
08-Jun-18 18:33 46.839885 -119.069399 229 37892ft 375kts
08-Jun-18 18:34 46.782153 -119.184628 229 37871ft 374kts
08-Jun-18 18:35 46.720769 -119.306657 229 37850ft 375kts
08-Jun-18 18:36 46.659224 -119.428603 229 37842ft 374kts
08-Jun-18 18:37 46.597524 -119.550312 229 37842ft 374kts
08-Jun-18 18:38 46.535963 -119.671234 229 37849ft 373kts
08-Jun-18 18:39 46.474086 -119.791724 229 37850ft 374kts
08-Jun-18 18:40 46.411960 -119.912350 229 37879ft 374kts
08-Jun-18 18:41 46.349946 -120.032363 229 37898ft 366kts
08-Jun-18 18:42 46.289616 -120.148751 229 37902ft 363kts
08-Jun-18 18:43 46.228868 -120.265478 229 36534ft 365kts
08-Jun-18 18:44 46.169496 -120.379259 229 33479ft 364kts
08-Jun-18 18:45 46.109893 -120.492870 229 30557ft 376kts
08-Jun-18 18:46 46.048544 -120.609594 229 27516ft 361kts
08-Jun-18 18:47 45.989085 -120.721916 228 25326ft 354kts
08-Jun-18 18:48 45.930595 -120.831855 228 23364ft 344kts
08-Jun-18 18:49 45.873379 -120.939022 228 21476ft 337kts
08-Jun-18 18:50 45.817375 -121.043581 228 19641ft 326kts
08-Jun-18 18:51 45.763211 -121.144347 228 17896ft 315kts
08-Jun-18 18:52 45.710720 -121.241666 229 16177ft 307kts
08-Jun-18 18:53 45.660743 -121.334055 229 14578ft 294kts
08-Jun-18 18:54 45.611686 -121.425108 234 12934ft 288kts
08-Jun-18 18:55 45.580039 -121.532902 244 11430ft 290kts
08-Jun-18 18:56 45.552105 -121.632969 245 10005ft 261kts
08-Jun-18 18:57 45.528163 -121.725082 262 8886ft 243kts
08-Jun-18 18:58 45.531486 -121.822239 271 8208ft 249kts
08-Jun-18 18:59 45.535476 -121.919475 273 7554ft 242kts
08-Jun-18 19:00 45.539727 -122.007281 275 6946ft 212kts
08-Jun-18 19:01 45.537840 -122.091518 265 6125ft 216kts
08-Jun-18 19:02 45.530005 -122.176911 265 5174ft 218kts
08-Jun-18 19:03 45.522078 -122.263288 259 4205ft 223kts
08-Jun-18 19:04 45.514437 -122.345478 260 3300ft 195kts
08-Jun-18 19:05 45.523659 -122.414392 299 2487ft 173kts
08-Jun-18 19:06 45.545718 -122.469728 298 1610ft 147kts
08-Jun-18 19:07 45.564888 -122.518799 298 849ft 142kts
08-Jun-18 19:08 45.583948 -122.567708 298 85ft 141kts
08-Jun-18 19:09 45.592098 -122.591281 268 24ft 21kts
08-Jun-18 19:10 45.591850 -122.595820 233 24ft 0kts

Navigation Log

Ident Type
Flight plan parsing failed, navigation log unavailable